KAEX/AEX METAR and TAF weather

Enter ICAO airport designator
Station Type Date Time Source
KAEX METAR 2019/02/21 11:53 UTC NOAA

KAEX 211153Z 05008KT 10SM -RA OVC034 09/08 A3000 RMK AO2 LTG DSNT N AND NE TSB1059E14 SLP163 P0004 60009 70009 T00940078 10100 20089 53001


Station Type Date Time Source
KAEX Decoded METAR 2019/02/21 11:53 UTC NOAA

ALEXANDRIA INTERNATIONAL AIRPORT, LA, United States (KAEX) 31-33N 092-56W 27M
Feb 21, 2019 - 06:53 AM EST / 2019.02.21 1153 UTC
Wind: from the NE (050 degrees) at 9 MPH (8 KT):0
Visibility: 10 mile(s):0
Sky conditions: overcast
Weather: light rain; Lightning observed
Precipitation last hour: 0.04 inches
Temperature: 48.9 F (9.4 C)
Dew Point: 46.0 F (7.8 C)
Relative Humidity: 89%
Pressure (altimeter): 30 in. Hg (1015 hPa)
Pressure tendency: 0.00 inches (0.1 hPa) higher than three hours ago
ob: KAEX 211153Z 05008KT 10SM -RA OVC034 09/08 A3000 RMK AO2 LTG DSNT N AND NE TSB1059E14 SLP163 P0004 60009 70009 T00940078 10100 20089 53001
cycle: 12

Station Type Date Time Source
KAEX TAF 2019/02/21 12:24 UTC NOAA

TAF KAEX 211123Z 2112/2212 04006KT P6SM VCTS SCT040CB BKN070 OVC110
TEMPO 2112/2113 4SM TSRA OVC025CB
FM211300 04008KT P6SM VCSH OVC020
FM211700 04007KT P6SM VCSH OVC007
FM220100 05005KT 4SM BR VCSH OVC003


Example: see airport list